createdAt,value
2023-07-11T00:00:21.866Z,117.67
2023-07-11T00:01:24.532Z,113.00
2023-07-11T00:02:27.465Z,111.00
2023-07-11T00:03:30.106Z,107.83
2023-07-11T00:04:35.364Z,104.00
2023-07-11T00:05:37.979Z,99.17
2023-07-11T00:06:40.584Z,94.33
2023-07-11T00:07:44.005Z,88.33
2023-07-11T00:08:46.616Z,83.67
2023-07-11T00:09:49.788Z,82.67
2023-07-11T00:10:52.354Z,84.00
2023-07-11T00:11:55.020Z,84.00
2023-07-11T00:12:57.687Z,84.17
2023-07-11T00:14:01.059Z,85.00
2023-07-11T00:15:05.289Z,84.83
2023-07-11T00:16:10.755Z,85.00
2023-07-11T00:17:13.993Z,85.33
2023-07-11T00:18:16.599Z,86.00
2023-07-11T00:19:21.219Z,87.33
2023-07-11T00:20:24.033Z,88.67
2023-07-11T00:21:26.668Z,91.83
2023-07-11T00:22:30.713Z,96.83
2023-07-11T00:23:33.759Z,99.00
2023-07-11T00:24:36.367Z,99.50
2023-07-11T00:25:39.036Z,100.83
2023-07-11T00:26:41.612Z,104.33
2023-07-11T00:27:44.216Z,105.83
2023-07-11T00:28:46.821Z,106.67
2023-07-11T00:29:49.453Z,109.17
2023-07-11T00:30:52.526Z,108.83
2023-07-11T00:31:55.132Z,107.50
2023-07-11T00:32:57.810Z,105.17
2023-07-11T00:34:00.456Z,104.00
2023-07-11T00:35:03.192Z,102.00
2023-07-11T00:36:06.227Z,100.33
2023-07-11T00:37:09.153Z,98.67
2023-07-11T00:38:11.750Z,97.00
2023-07-11T00:39:16.721Z,97.00
2023-07-11T00:40:19.338Z,97.33
2023-07-11T00:41:21.971Z,100.17
2023-07-11T00:42:24.570Z,101.33
2023-07-11T00:43:27.225Z,102.00
2023-07-11T00:44:30.230Z,101.67
2023-07-11T00:45:51.267Z,102.00
2023-07-11T00:46:54.033Z,102.00
2023-07-11T00:47:56.683Z,96.67
2023-07-11T00:49:04.231Z,84.67
2023-07-11T00:50:09.550Z,78.67
2023-07-11T00:51:14.355Z,78.33
2023-07-11T00:52:18.474Z,79.33
2023-07-11T00:53:21.882Z,80.50
2023-07-11T00:54:32.701Z,81.67
2023-07-11T00:55:35.304Z,84.83
2023-07-11T00:56:45.059Z,92.17
2023-07-11T00:57:47.780Z,96.50
2023-07-11T00:58:51.330Z,97.00
2023-07-11T00:59:54.415Z,95.83
2023-07-11T01:00:57.368Z,93.17
2023-07-11T01:02:13.287Z,92.33
2023-07-11T01:03:16.012Z,89.17
2023-07-11T01:04:20.725Z,86.50
2023-07-11T01:05:23.383Z,86.00
2023-07-11T01:06:28.801Z,87.17
2023-07-11T01:07:34.784Z,90.50
2023-07-11T01:08:37.389Z,94.83
2023-07-11T01:09:40.004Z,99.50
2023-07-11T01:10:42.674Z,104.83
2023-07-11T01:11:58.292Z,107.00
2023-07-11T01:13:02.981Z,107.17
2023-07-11T01:14:05.611Z,114.33
2023-07-11T01:15:08.937Z,117.67
2023-07-11T01:16:11.673Z,120.67
2023-07-11T01:17:35.086Z,122.83
2023-07-11T01:18:38.093Z,126.17
2023-07-11T01:19:40.728Z,134.33
2023-07-11T01:20:43.304Z,138.50
2023-07-11T01:21:46.360Z,136.83
2023-07-11T01:22:50.525Z,141.00
2023-07-11T01:23:53.222Z,150.67
2023-07-11T01:24:57.610Z,151.50
2023-07-11T01:26:06.137Z,149.83
2023-07-11T01:27:09.304Z,151.17
2023-07-11T01:28:14.326Z,152.17
2023-07-11T01:29:17.035Z,152.00
2023-07-11T01:30:26.259Z,153.33
2023-07-11T01:31:29.006Z,152.50
2023-07-11T01:32:31.946Z,150.67
2023-07-11T01:33:35.610Z,150.00
2023-07-11T01:34:38.197Z,150.50
2023-07-11T01:35:40.811Z,154.50
2023-07-11T01:36:43.423Z,156.17
2023-07-11T01:37:46.072Z,158.33
2023-07-11T01:38:48.656Z,157.50
2023-07-11T01:39:51.291Z,156.17
2023-07-11T01:40:53.947Z,156.00
2023-07-11T01:41:56.608Z,155.33
2023-07-11T01:42:59.449Z,154.33
2023-07-11T01:44:02.701Z,151.67
2023-07-11T01:45:05.860Z,147.67
2023-07-11T01:46:08.698Z,142.17
2023-07-11T01:47:11.839Z,136.17
2023-07-11T01:48:14.510Z,134.67
2023-07-11T01:49:17.175Z,133.83
2023-07-11T01:50:19.773Z,130.83
2023-07-11T01:51:22.402Z,124.67
2023-07-11T01:52:25.158Z,119.33
2023-07-11T01:53:27.813Z,110.50
2023-07-11T01:54:30.459Z,111.17
2023-07-11T01:55:33.077Z,110.67
2023-07-11T01:56:35.706Z,109.33
2023-07-11T01:57:38.352Z,107.33
2023-07-11T01:58:41.052Z,109.50
2023-07-11T01:59:44.112Z,110.17
2023-07-11T02:00:46.736Z,110.17
2023-07-11T02:01:49.496Z,110.00
2023-07-11T02:02:52.638Z,111.00
2023-07-11T02:03:55.926Z,112.00
2023-07-11T02:04:58.690Z,112.67
2023-07-11T02:06:01.254Z,113.00
2023-07-11T02:07:05.104Z,115.50
2023-07-11T02:08:07.758Z,144.00
2023-07-11T02:09:10.363Z,164.33
2023-07-11T02:10:12.969Z,164.67
2023-07-11T02:11:15.644Z,166.50
2023-07-11T02:12:18.221Z,172.50
2023-07-11T02:13:20.990Z,175.17
2023-07-11T02:14:23.798Z,172.17
2023-07-11T02:15:26.419Z,173.33
2023-07-11T02:16:29.370Z,172.00
2023-07-11T02:17:33.398Z,171.83
2023-07-11T02:18:36.173Z,171.83
2023-07-11T02:19:38.797Z,173.33
2023-07-11T02:20:43.002Z,177.00
2023-07-11T02:21:45.971Z,180.00
2023-07-11T02:22:48.604Z,183.67
2023-07-11T02:23:51.416Z,188.50
2023-07-11T02:24:54.096Z,193.17
2023-07-11T02:25:56.714Z,193.67
2023-07-11T02:26:59.375Z,190.50
2023-07-11T02:28:02.026Z,194.67
2023-07-11T02:29:05.472Z,196.83
2023-07-11T02:30:08.492Z,197.50
2023-07-11T02:31:11.133Z,197.33
2023-07-11T02:32:13.802Z,196.33
2023-07-11T02:33:16.434Z,194.50
2023-07-11T02:34:19.161Z,194.00
2023-07-11T02:35:21.776Z,194.00
2023-07-11T02:36:24.374Z,193.17
2023-07-11T02:37:26.960Z,192.50
2023-07-11T02:38:29.555Z,191.17
2023-07-11T02:39:32.145Z,190.17
2023-07-11T02:40:34.780Z,190.00
2023-07-11T02:41:37.414Z,190.00
2023-07-11T02:42:40.042Z,190.00
2023-07-11T02:43:42.637Z,190.00
2023-07-11T02:44:45.221Z,190.00
2023-07-11T02:45:49.225Z,190.00
2023-07-11T02:46:51.871Z,189.33
2023-07-11T02:47:54.563Z,188.50
2023-07-11T02:48:57.561Z,187.50
2023-07-11T02:50:00.227Z,185.33
2023-07-11T02:51:02.904Z,183.67
2023-07-11T02:52:09.533Z,177.50
2023-07-11T02:53:12.125Z,164.33
2023-07-11T02:54:15.368Z,155.67
2023-07-11T02:55:17.995Z,151.83
2023-07-11T02:56:21.382Z,150.00
2023-07-11T02:57:23.971Z,149.67
2023-07-11T02:58:26.626Z,147.33
2023-07-11T02:59:29.191Z,146.50
2023-07-11T03:00:31.939Z,145.33
2023-07-11T03:01:35.433Z,141.83
2023-07-11T03:02:38.080Z,142.00
2023-07-11T03:03:40.901Z,141.17
2023-07-11T03:04:43.555Z,136.50
2023-07-11T03:05:47.925Z,135.50
2023-07-11T03:06:50.573Z,132.67
2023-07-11T03:07:53.185Z,132.50
2023-07-11T03:08:55.773Z,129.00
2023-07-11T03:09:58.358Z,129.17
2023-07-11T03:11:01.844Z,130.33
2023-07-11T03:12:04.759Z,131.17
2023-07-11T03:13:07.447Z,131.83
2023-07-11T03:14:10.118Z,131.50
2023-07-11T03:15:12.764Z,129.83
2023-07-11T03:16:15.480Z,129.83
2023-07-11T03:17:18.861Z,130.50
2023-07-11T03:18:21.579Z,131.00
2023-07-11T03:19:24.182Z,131.33
2023-07-11T03:20:26.942Z,132.00
2023-07-11T03:21:29.541Z,131.83
2023-07-11T03:22:32.217Z,132.00
2023-07-11T03:23:34.876Z,132.67
2023-07-11T03:24:37.490Z,134.33
2023-07-11T03:25:40.242Z,135.33
2023-07-11T03:26:45.109Z,136.00
2023-07-11T03:27:47.774Z,136.50
2023-07-11T03:28:50.531Z,138.17
2023-07-11T03:29:53.128Z,140.67
2023-07-11T03:30:55.763Z,143.17
2023-07-11T03:31:58.419Z,145.83
2023-07-11T03:33:01.272Z,147.17
2023-07-11T03:34:03.894Z,148.83
2023-07-11T03:35:06.669Z,149.83
2023-07-11T03:36:09.537Z,150.67
2023-07-11T03:37:12.644Z,150.00
2023-07-11T03:38:15.336Z,150.00
2023-07-11T03:39:18.144Z,150.17
2023-07-11T03:40:20.792Z,150.83
2023-07-11T03:41:23.413Z,151.33
2023-07-11T03:42:26.042Z,152.00
2023-07-11T03:43:28.689Z,158.17
2023-07-11T03:44:31.313Z,173.17
2023-07-11T03:45:33.944Z,177.00
2023-07-11T03:46:36.622Z,177.17
2023-07-11T03:47:39.328Z,178.33
2023-07-11T03:48:42.004Z,174.83
2023-07-11T03:49:44.618Z,175.50
2023-07-11T03:50:47.202Z,175.67
2023-07-11T03:51:49.836Z,175.67
2023-07-11T03:52:52.414Z,175.00
2023-07-11T03:53:55.042Z,176.00
2023-07-11T03:54:57.669Z,177.50
2023-07-11T03:56:00.297Z,181.00
2023-07-11T03:57:03.561Z,183.00
2023-07-11T03:58:06.164Z,183.83
2023-07-11T03:59:09.099Z,191.83
2023-07-11T04:00:12.283Z,209.00
2023-07-11T04:01:15.013Z,238.17
2023-07-11T04:02:17.673Z,258.17
2023-07-11T04:03:20.444Z,259.83
2023-07-11T04:04:23.175Z,249.83
2023-07-11T04:05:25.800Z,232.00
2023-07-11T04:06:28.434Z,229.17
2023-07-11T04:07:31.008Z,225.50
2023-07-11T04:08:33.634Z,233.17
2023-07-11T04:09:36.718Z,254.50
2023-07-11T04:10:39.972Z,261.50
2023-07-11T04:11:42.723Z,249.50
2023-07-11T04:12:45.443Z,241.00
2023-07-11T04:13:48.044Z,234.00
2023-07-11T04:14:50.743Z,222.33
2023-07-11T04:15:53.386Z,208.00
2023-07-11T04:16:56.107Z,201.83
2023-07-11T04:17:58.825Z,203.67
2023-07-11T04:19:01.465Z,207.33
2023-07-11T04:20:04.330Z,208.83
2023-07-11T04:21:06.923Z,209.50
2023-07-11T04:22:09.614Z,209.83
2023-07-11T04:23:12.258Z,205.50
2023-07-11T04:24:14.876Z,200.67
2023-07-11T04:25:17.495Z,200.00
2023-07-11T04:26:20.115Z,195.00
2023-07-11T04:27:22.749Z,192.67
2023-07-11T04:28:25.521Z,194.83
2023-07-11T04:29:28.103Z,196.00
2023-07-11T04:30:30.758Z,194.33
2023-07-11T04:31:33.596Z,187.33
2023-07-11T04:32:37.064Z,185.67
2023-07-11T04:33:39.731Z,175.33
2023-07-11T04:34:42.354Z,165.33
2023-07-11T04:35:45.317Z,165.33
2023-07-11T04:36:47.936Z,163.33
2023-07-11T04:37:50.621Z,160.67
2023-07-11T04:38:54.222Z,163.67
2023-07-11T04:39:56.994Z,167.17
2023-07-11T04:41:03.615Z,166.00
2023-07-11T04:42:06.333Z,163.17
2023-07-11T04:43:08.962Z,164.50
2023-07-11T04:44:11.604Z,164.50
2023-07-11T04:45:14.255Z,163.67
2023-07-11T04:46:17.341Z,164.67
2023-07-11T04:47:20.013Z,167.50
2023-07-11T04:48:22.586Z,171.33
2023-07-11T04:49:25.186Z,177.33
2023-07-11T04:50:27.763Z,182.67
2023-07-11T04:51:31.412Z,187.83
2023-07-11T04:52:33.996Z,189.00
2023-07-11T04:53:36.767Z,189.50
2023-07-11T04:54:39.395Z,190.17
2023-07-11T04:55:42.139Z,190.00
2023-07-11T04:56:44.821Z,191.17
2023-07-11T04:57:47.502Z,196.17
2023-07-11T04:58:50.145Z,197.33
2023-07-11T04:59:52.764Z,196.33
2023-07-11T05:01:01.647Z,195.50
2023-07-11T05:02:04.457Z,195.00
2023-07-11T05:03:07.141Z,195.67
2023-07-11T05:04:09.977Z,196.67
2023-07-11T05:05:12.692Z,198.00
2023-07-11T05:06:15.290Z,199.00
2023-07-11T05:07:18.012Z,198.50
2023-07-11T05:08:20.612Z,195.83
2023-07-11T05:09:23.247Z,192.17
2023-07-11T05:10:25.866Z,189.00
2023-07-11T05:11:28.439Z,181.00
2023-07-11T05:12:31.093Z,180.83
2023-07-11T05:13:35.365Z,181.83
2023-07-11T05:14:38.961Z,183.17
2023-07-11T05:15:41.565Z,184.33
2023-07-11T05:16:44.268Z,184.17
2023-07-11T05:17:46.975Z,184.33
2023-07-11T05:18:50.218Z,185.00
2023-07-11T05:19:52.882Z,185.00
2023-07-11T05:20:57.002Z,188.33
2023-07-11T05:21:59.633Z,196.17
2023-07-11T05:23:02.292Z,204.00
2023-07-11T05:24:05.250Z,209.50
2023-07-11T05:25:10.449Z,229.67
2023-07-11T05:26:13.689Z,267.50
2023-07-11T05:27:16.285Z,295.83
2023-07-11T05:28:19.389Z,307.50
2023-07-11T05:29:22.030Z,304.17
2023-07-11T05:30:24.628Z,318.50
2023-07-11T05:31:27.257Z,307.83
2023-07-11T05:32:29.938Z,279.33
2023-07-11T05:33:33.149Z,282.33
2023-07-11T05:34:37.211Z,283.50
2023-07-11T05:36:10.830Z,275.67
2023-07-11T05:37:14.471Z,264.00
2023-07-11T05:38:17.071Z,262.67
2023-07-11T05:39:19.763Z,249.67
2023-07-11T05:40:24.282Z,239.33
2023-07-11T05:41:28.170Z,234.33
2023-07-11T05:42:30.755Z,232.50
2023-07-11T05:43:33.385Z,227.00
2023-07-11T05:44:36.034Z,221.83
2023-07-11T05:45:38.691Z,220.33
2023-07-11T05:46:42.767Z,218.33
2023-07-11T05:47:47.237Z,198.83
2023-07-11T05:48:50.322Z,189.33
2023-07-11T05:49:52.932Z,194.00
2023-07-11T05:50:59.905Z,190.67
2023-07-11T05:52:02.450Z,187.17
2023-07-11T05:53:05.018Z,185.50
2023-07-11T05:54:07.636Z,191.00
2023-07-11T05:55:10.372Z,189.67
2023-07-11T05:56:13.956Z,182.67
2023-07-11T05:57:16.566Z,184.33
2023-07-11T05:58:19.646Z,189.67
2023-07-11T05:59:22.222Z,192.83
2023-07-11T06:00:24.921Z,194.00
2023-07-11T06:01:30.072Z,194.00
2023-07-11T06:02:33.521Z,193.17
2023-07-11T06:03:36.137Z,189.67
2023-07-11T06:04:38.818Z,189.83
2023-07-11T06:05:42.302Z,191.17
2023-07-11T06:06:45.204Z,192.50
2023-07-11T06:07:48.602Z,201.33
2023-07-11T06:08:51.740Z,204.17
2023-07-11T06:09:55.945Z,203.17
2023-07-11T06:11:01.929Z,200.83
2023-07-11T06:12:04.855Z,198.67
2023-07-11T06:13:07.454Z,198.00
2023-07-11T06:14:11.083Z,197.50
2023-07-11T06:15:13.809Z,196.17
2023-07-11T06:16:18.586Z,192.83
2023-07-11T06:17:21.326Z,191.00
2023-07-11T06:18:23.944Z,191.00
2023-07-11T06:19:26.558Z,191.67
2023-07-11T06:20:29.303Z,194.50
2023-07-11T06:21:32.491Z,198.83
2023-07-11T06:22:35.222Z,200.00
2023-07-11T06:23:38.045Z,200.67
2023-07-11T06:24:41.945Z,204.67
2023-07-11T06:25:44.711Z,212.33
2023-07-11T06:26:47.368Z,213.83
2023-07-11T06:27:50.033Z,212.00
2023-07-11T06:28:52.708Z,211.50
2023-07-11T06:29:55.279Z,212.17
2023-07-11T06:31:00.050Z,213.83
2023-07-11T06:32:02.777Z,211.33
2023-07-11T06:33:05.479Z,208.50
2023-07-11T06:34:08.152Z,204.33
2023-07-11T06:35:10.814Z,194.00
2023-07-11T06:36:13.577Z,178.67
2023-07-11T06:37:16.231Z,164.17
2023-07-11T06:38:19.622Z,162.67
2023-07-11T06:39:22.311Z,168.83
2023-07-11T06:40:24.954Z,168.50
2023-07-11T06:41:29.699Z,167.17
2023-07-11T06:42:32.298Z,171.17
2023-07-11T06:43:35.170Z,173.00
2023-07-11T06:44:37.811Z,174.00
2023-07-11T06:45:40.433Z,171.33
2023-07-11T06:46:43.054Z,168.00
2023-07-11T06:47:45.723Z,168.67
2023-07-11T06:48:48.342Z,162.00
2023-07-11T06:49:51.118Z,162.33
2023-07-11T06:51:01.609Z,165.33
2023-07-11T06:52:04.473Z,170.33
2023-07-11T06:53:07.102Z,171.00
2023-07-11T06:54:09.690Z,170.83
2023-07-11T06:55:13.636Z,170.00
2023-07-11T06:56:16.276Z,169.33
2023-07-11T06:57:19.761Z,164.67
2023-07-11T06:58:23.145Z,162.33
2023-07-11T06:59:25.761Z,162.33
2023-07-11T07:00:28.385Z,160.67
2023-07-11T07:01:38.149Z,155.33
2023-07-11T07:02:41.721Z,150.33
2023-07-11T07:03:44.555Z,152.50
2023-07-11T07:04:47.202Z,153.33
2023-07-11T07:05:54.973Z,154.67
2023-07-11T07:06:57.641Z,156.00
2023-07-11T07:08:12.657Z,158.67
2023-07-11T07:09:16.516Z,159.67
2023-07-11T07:10:19.178Z,155.50
2023-07-11T07:11:21.825Z,148.67
2023-07-11T07:12:25.158Z,147.33
2023-07-11T07:13:28.270Z,146.33
2023-07-11T07:14:31.000Z,133.50
2023-07-11T07:15:33.574Z,129.67
2023-07-11T07:16:38.149Z,132.00
2023-07-11T07:17:40.829Z,136.83
2023-07-11T07:18:44.644Z,138.50
2023-07-11T07:19:47.243Z,137.33
2023-07-11T07:20:58.147Z,132.67
2023-07-11T07:22:01.449Z,118.00
2023-07-11T07:23:05.955Z,114.17
2023-07-11T07:24:08.822Z,122.50
2023-07-11T07:25:24.375Z,125.17
2023-07-11T07:26:27.914Z,126.33
2023-07-11T07:27:30.482Z,127.33
2023-07-11T07:28:35.394Z,127.83
2023-07-11T07:29:40.234Z,121.83
2023-07-11T07:30:50.226Z,108.83
2023-07-11T07:31:52.852Z,93.83
2023-07-11T07:32:55.788Z,89.83
2023-07-11T07:33:58.446Z,86.83
2023-07-11T07:35:01.076Z,80.67
2023-07-11T07:36:06.133Z,73.83
2023-07-11T07:37:08.697Z,73.33
2023-07-11T07:38:11.884Z,82.50
2023-07-11T07:39:14.463Z,88.67
2023-07-11T07:40:18.143Z,94.83
2023-07-11T07:41:21.385Z,98.50
2023-07-11T07:42:24.012Z,108.00
2023-07-11T07:43:28.291Z,117.83
2023-07-11T07:44:30.869Z,113.50
2023-07-11T07:45:33.486Z,108.67
2023-07-11T07:46:36.153Z,88.83
2023-07-11T07:47:38.897Z,73.33
2023-07-11T07:48:41.836Z,77.50
2023-07-11T07:49:53.826Z,78.67
2023-07-11T07:51:05.929Z,76.00
2023-07-11T07:52:08.776Z,74.00
2023-07-11T07:53:13.209Z,75.17
2023-07-11T07:54:15.810Z,77.17
2023-07-11T07:55:18.472Z,79.67
2023-07-11T07:56:23.147Z,83.67
2023-07-11T07:57:26.912Z,82.33
2023-07-11T07:58:41.915Z,77.00
2023-07-11T07:59:45.127Z,74.33
2023-07-11T08:00:47.687Z,73.33
2023-07-11T08:01:50.306Z,66.00
2023-07-11T08:02:53.075Z,63.00
2023-07-11T08:03:55.846Z,64.50
2023-07-11T08:04:59.610Z,62.00
2023-07-11T08:06:14.592Z,63.00
2023-07-11T08:07:18.951Z,64.00
2023-07-11T08:08:22.018Z,62.67
2023-07-11T08:09:26.792Z,58.33
2023-07-11T08:10:29.332Z,54.67
2023-07-11T08:11:32.028Z,51.17
2023-07-11T08:12:34.739Z,48.67
2023-07-11T08:13:49.208Z,39.67
2023-07-11T08:14:59.929Z,28.33
2023-07-11T08:16:09.181Z,19.00
2023-07-11T08:17:21.910Z,15.17
2023-07-11T08:18:24.596Z,14.33
2023-07-11T08:19:27.200Z,14.33
2023-07-11T08:20:29.804Z,15.67
2023-07-11T08:21:32.487Z,13.50
2023-07-11T08:22:35.206Z,12.17
2023-07-11T08:23:37.820Z,11.00
2023-07-11T08:24:40.450Z,10.50
2023-07-11T08:25:43.066Z,9.00
2023-07-11T08:26:45.625Z,8.00
2023-07-11T08:27:48.226Z,7.33
2023-07-11T08:28:52.369Z,7.00
2023-07-11T08:29:55.012Z,6.17
2023-07-11T08:30:57.659Z,5.17
2023-07-11T08:32:00.227Z,5.00
2023-07-11T08:33:03.515Z,5.17
2023-07-11T08:34:06.346Z,6.00
2023-07-11T08:35:09.368Z,6.67
2023-07-11T08:36:11.936Z,7.00
2023-07-11T08:37:14.924Z,7.00
2023-07-11T08:38:17.554Z,6.83
2023-07-11T08:39:20.116Z,6.17
2023-07-11T08:40:37.980Z,7.00
2023-07-11T08:41:53.811Z,7.00
2023-07-11T08:42:57.110Z,7.00
2023-07-11T08:44:06.336Z,7.00
2023-07-11T08:45:31.279Z,7.00
2023-07-11T08:46:44.114Z,7.00
2023-07-11T08:48:07.670Z,7.00
2023-07-11T08:49:18.585Z,7.00
2023-07-11T08:50:27.632Z,7.83
2023-07-11T08:51:38.348Z,8.33
2023-07-11T08:52:43.081Z,9.17
2023-07-11T08:53:52.510Z,10.00
2023-07-11T08:55:03.884Z,10.00
2023-07-11T08:56:21.113Z,10.00
2023-07-11T08:57:25.037Z,10.00
2023-07-11T08:58:35.194Z,10.00
2023-07-11T08:59:59.871Z,10.00
2023-07-11T09:01:04.611Z,9.00
2023-07-11T09:02:47.597Z,9.00
2023-07-11T09:03:50.317Z,8.83
2023-07-11T09:04:54.435Z,8.00
2023-07-11T09:06:02.832Z,8.33
2023-07-11T09:07:10.922Z,9.00
2023-07-11T09:08:20.884Z,9.00
2023-07-11T09:09:24.099Z,9.00
2023-07-11T09:10:49.101Z,9.00
2023-07-11T09:12:25.428Z,9.00
2023-07-11T09:14:09.650Z,9.00
2023-07-11T09:15:44.100Z,9.00
2023-07-11T09:17:05.748Z,9.00
2023-07-11T09:18:21.725Z,9.00
2023-07-11T09:19:45.879Z,9.83
2023-07-11T09:21:02.264Z,10.67
2023-07-11T09:22:04.921Z,11.33
2023-07-11T09:23:38.932Z,12.00
2023-07-11T09:25:10.828Z,12.00
2023-07-11T09:26:26.274Z,12.00
2023-07-11T09:27:35.825Z,12.00
2023-07-11T09:28:40.945Z,12.00
2023-07-11T09:29:46.802Z,12.00
2023-07-11T09:31:00.741Z,11.17
2023-07-11T09:32:05.579Z,11.00
2023-07-11T09:33:16.012Z,12.00
2023-07-11T09:34:25.785Z,11.17
2023-07-11T09:35:31.629Z,11.00
2023-07-11T09:36:35.284Z,11.00
2023-07-11T09:37:44.073Z,11.00
2023-07-11T09:38:55.558Z,11.00
2023-07-11T09:40:14.112Z,10.00
2023-07-11T09:41:21.036Z,10.00
2023-07-11T09:42:34.504Z,10.50
2023-07-11T09:43:37.071Z,11.00
2023-07-11T09:44:39.688Z,11.67
2023-07-11T09:45:44.234Z,12.17
2023-07-11T09:46:47.543Z,13.00
2023-07-11T09:48:29.182Z,13.83
2023-07-11T09:49:32.336Z,14.00
2023-07-11T09:51:06.929Z,13.00
2023-07-11T09:52:27.521Z,13.00
2023-07-11T09:53:31.988Z,12.00
2023-07-11T09:54:59.329Z,12.00
2023-07-11T09:56:14.320Z,12.00
2023-07-11T09:57:17.737Z,12.00
2023-07-11T09:58:20.355Z,12.83
2023-07-11T09:59:23.257Z,13.00
2023-07-11T10:00:25.852Z,13.83
2023-07-11T10:01:33.420Z,14.00
2023-07-11T10:02:36.137Z,14.00
2023-07-11T10:03:38.735Z,14.67
2023-07-11T10:04:45.035Z,15.00
2023-07-11T10:05:50.832Z,15.83
2023-07-11T10:07:05.182Z,16.00
2023-07-11T10:08:20.671Z,16.33
2023-07-11T10:09:35.121Z,16.00
2023-07-11T10:10:37.702Z,16.00
2023-07-11T10:11:40.336Z,16.00
2023-07-11T10:12:44.361Z,16.17
2023-07-11T10:13:47.039Z,17.00
2023-07-11T10:15:01.307Z,17.00
2023-07-11T10:16:06.420Z,17.67
2023-07-11T10:17:21.028Z,18.00
2023-07-11T10:18:26.609Z,18.00
2023-07-11T10:19:29.460Z,17.00
2023-07-11T10:20:32.378Z,17.00
2023-07-11T10:21:40.751Z,16.83
2023-07-11T10:22:45.456Z,16.17
2023-07-11T10:23:50.078Z,17.17
2023-07-11T10:24:52.993Z,18.00
2023-07-11T10:26:07.149Z,18.00
2023-07-11T10:27:23.831Z,18.00
2023-07-11T10:28:46.009Z,18.83
2023-07-11T10:29:53.305Z,19.00
2023-07-11T10:30:59.019Z,19.00
2023-07-11T10:32:07.429Z,19.00
2023-07-11T10:33:24.884Z,18.83
2023-07-11T10:34:45.636Z,18.00
2023-07-11T10:36:04.179Z,19.00
2023-07-11T10:37:14.192Z,18.33
2023-07-11T10:38:25.017Z,18.33
2023-07-11T10:39:51.721Z,19.17
2023-07-11T10:40:59.641Z,20.83
2023-07-11T10:42:11.205Z,20.83
2023-07-11T10:43:30.247Z,20.00
2023-07-11T10:44:41.758Z,20.00
2023-07-11T10:45:48.356Z,20.00
2023-07-11T10:46:53.227Z,20.83
2023-07-11T10:48:05.646Z,21.33
2023-07-11T10:49:16.147Z,22.00
2023-07-11T10:50:27.629Z,21.00
2023-07-11T10:51:45.489Z,21.00
2023-07-11T10:52:52.044Z,21.00
2023-07-11T10:54:05.174Z,21.17
2023-07-11T10:55:18.522Z,22.00
2023-07-11T10:56:25.164Z,21.00
2023-07-11T10:57:44.144Z,21.00
2023-07-11T10:58:48.572Z,21.00
2023-07-11T10:59:51.179Z,21.83
2023-07-11T11:01:09.168Z,22.67
2023-07-11T11:02:20.611Z,23.00
2023-07-11T11:03:44.610Z,23.00
2023-07-11T11:04:56.809Z,23.00
2023-07-11T11:06:25.880Z,23.00
2023-07-11T11:07:39.684Z,23.33
2023-07-11T11:09:08.430Z,25.50
2023-07-11T11:10:35.499Z,27.00
2023-07-11T11:12:00.340Z,27.17
2023-07-11T11:13:16.279Z,28.00
2023-07-11T11:14:26.754Z,28.00
2023-07-11T11:15:47.846Z,28.67
2023-07-11T11:17:07.027Z,32.50
2023-07-11T11:18:31.672Z,36.50
2023-07-11T11:19:37.048Z,36.00
2023-07-11T11:21:06.188Z,36.00
2023-07-11T11:22:39.159Z,35.83
2023-07-11T11:24:07.550Z,35.00
2023-07-11T11:25:20.325Z,35.00
2023-07-11T11:26:24.014Z,35.00
2023-07-11T11:27:38.734Z,35.00
2023-07-11T11:28:53.199Z,35.00
2023-07-11T11:30:18.776Z,36.17
2023-07-11T11:31:30.154Z,38.83
2023-07-11T11:32:54.238Z,40.67
2023-07-11T11:34:32.630Z,42.83
2023-07-11T11:35:41.304Z,50.83
2023-07-11T11:37:04.201Z,57.83
2023-07-11T11:38:54.879Z,57.17
2023-07-11T11:40:12.765Z,54.17
2023-07-11T11:41:19.830Z,54.33
2023-07-11T11:42:26.354Z,56.00
2023-07-11T11:43:32.757Z,58.67
2023-07-11T11:47:02.575Z,70.00
2023-07-11T11:49:39.651Z,74.83
2023-07-11T11:51:50.443Z,71.50
2023-07-11T11:53:17.043Z,70.33
2023-07-11T11:54:25.411Z,69.00
2023-07-11T11:55:39.155Z,68.33
2023-07-11T11:56:46.914Z,67.67
2023-07-11T11:57:49.754Z,66.83
2023-07-11T11:59:01.983Z,66.00
2023-07-11T12:01:42.590Z,64.00
2023-07-11T12:02:49.881Z,64.50
2023-07-11T12:03:52.732Z,63.17
2023-07-11T12:04:58.349Z,62.17
2023-07-11T12:06:32.229Z,61.17
2023-07-11T12:07:40.918Z,60.17
2023-07-11T12:08:45.255Z,59.50
2023-07-11T12:09:52.323Z,59.00
2023-07-11T12:11:09.995Z,59.50
2023-07-11T12:12:14.401Z,61.83
2023-07-11T12:13:31.279Z,63.17
2023-07-11T12:14:37.941Z,64.67
2023-07-11T12:15:40.591Z,66.00
2023-07-11T12:16:48.934Z,66.00
2023-07-11T12:17:51.671Z,66.00
2023-07-11T12:18:58.204Z,66.00
2023-07-11T12:20:08.610Z,67.00
2023-07-11T12:21:17.454Z,67.50
2023-07-11T12:22:20.054Z,68.17
2023-07-11T12:23:55.399Z,69.00
2023-07-11T12:25:04.390Z,71.00
2023-07-11T12:26:17.286Z,71.00
2023-07-11T12:27:20.006Z,70.17
2023-07-11T12:28:24.980Z,67.83
2023-07-11T12:29:51.571Z,64.17
2023-07-11T12:31:24.102Z,61.00
2023-07-11T12:32:50.679Z,61.00
2023-07-11T12:34:04.783Z,61.00
2023-07-11T12:35:07.533Z,61.00
2023-07-11T12:36:25.172Z,61.83
2023-07-11T12:37:28.530Z,63.83
2023-07-11T12:38:39.637Z,64.33
2023-07-11T12:40:14.321Z,65.00
2023-07-11T12:41:44.608Z,65.00
2023-07-11T12:42:53.029Z,65.00
2023-07-11T12:43:55.960Z,65.00
2023-07-11T12:44:59.607Z,65.00
2023-07-11T12:46:15.452Z,65.00
2023-07-11T12:47:20.685Z,64.17
2023-07-11T12:48:27.754Z,63.00
2023-07-11T12:49:31.042Z,63.50
2023-07-11T12:50:53.968Z,67.17
2023-07-11T12:52:17.642Z,72.00
2023-07-11T12:53:20.423Z,72.50
2023-07-11T12:54:25.564Z,74.17
2023-07-11T12:55:29.783Z,76.67
2023-07-11T12:56:32.423Z,77.83
2023-07-11T12:57:34.996Z,78.00
2023-07-11T12:58:37.577Z,79.00
2023-07-11T12:59:40.476Z,80.00
2023-07-11T13:00:43.696Z,78.83
2023-07-11T13:01:46.335Z,77.33
2023-07-11T13:02:52.130Z,76.50
2023-07-11T13:03:54.836Z,74.17
2023-07-11T13:04:59.930Z,73.00
2023-07-11T13:06:21.084Z,72.33
2023-07-11T13:07:28.942Z,70.83
2023-07-11T13:08:37.856Z,68.67
2023-07-11T13:09:59.534Z,66.50
2023-07-11T13:11:05.103Z,65.00
2023-07-11T13:12:13.329Z,65.00
2023-07-11T13:13:15.903Z,65.50
2023-07-11T13:14:18.850Z,66.83
2023-07-11T13:15:24.945Z,67.00
2023-07-11T13:16:39.295Z,66.83
2023-07-11T13:17:43.781Z,66.00
2023-07-11T13:18:49.691Z,65.33
2023-07-11T13:20:00.611Z,63.00
2023-07-11T13:21:05.696Z,59.00
2023-07-11T13:22:17.526Z,56.17
2023-07-11T13:23:20.312Z,56.00
2023-07-11T13:24:29.729Z,56.67
2023-07-11T13:25:37.281Z,57.17
2023-07-11T13:26:39.992Z,58.00
2023-07-11T13:27:47.386Z,58.17
2023-07-11T13:29:20.247Z,59.00
2023-07-11T13:30:26.890Z,59.00
2023-07-11T13:31:32.583Z,58.17
2023-07-11T13:32:39.887Z,58.50
2023-07-11T13:33:44.706Z,60.17
2023-07-11T13:34:49.916Z,61.00
2023-07-11T13:36:07.372Z,60.50
2023-07-11T13:37:10.765Z,60.00
2023-07-11T13:38:14.254Z,60.00
2023-07-11T13:39:26.775Z,59.17
2023-07-11T13:40:39.021Z,60.17
2023-07-11T13:41:46.858Z,63.33
2023-07-11T13:42:49.483Z,65.00
2023-07-11T13:43:57.915Z,66.17
2023-07-11T13:45:12.972Z,68.83
2023-07-11T13:46:17.562Z,76.17
2023-07-11T13:47:41.963Z,77.83
2023-07-11T13:48:49.468Z,76.00
2023-07-11T13:50:11.772Z,76.00
2023-07-11T13:51:23.638Z,77.17
2023-07-11T13:52:40.835Z,79.67
2023-07-11T13:53:50.735Z,80.67
2023-07-11T13:54:56.094Z,81.17
2023-07-11T13:55:58.761Z,82.67
2023-07-11T13:57:01.928Z,82.00
2023-07-11T13:58:06.477Z,81.00
2023-07-11T13:59:09.599Z,82.17
2023-07-11T14:00:16.327Z,87.50
2023-07-11T14:01:23.416Z,90.00
2023-07-11T14:02:34.507Z,89.00
2023-07-11T14:03:37.355Z,87.83
2023-07-11T14:04:40.873Z,86.50
2023-07-11T14:05:47.525Z,82.33
2023-07-11T14:06:50.107Z,76.17
2023-07-11T14:07:54.521Z,72.83
2023-07-11T14:08:57.134Z,72.17
2023-07-11T14:09:59.750Z,72.17